Time;durP1;ratioP1;P1;durP2;ratioP2;P2;SDS_P1;SDS_P2;PMS_P1;PMS_P2;Temp;Humidity;BMP_temperature;BMP_pressure;BME280_temperature;BME280_humidity;BME280_pressure;Samples;Min_cycle;Max_cycle;Signal;HPM_P1;HPM_P2
2022/10/30 00:01:56;;;;;;;30.10;12.90;;;;;;;;;;1694825;84;20977;-82
2022/10/30 00:04:22;;;;;;;28.52;12.37;;;;;;;;;;1694758;84;21441;-83
2022/10/30 00:06:48;;;;;;;33.18;13.55;;;;;;;;;;1695119;84;20965;-82
2022/10/30 00:09:14;;;;;;;27.90;12.15;;;;;;;;;;1695806;84;20922;-86
2022/10/30 00:11:40;;;;;;;26.27;12.15;;;;;;;;;;1695160;83;20858;-82
2022/10/30 00:14:06;;;;;;;25.80;12.60;;;;;;;;;;1695199;83;21036;-82
2022/10/30 00:16:32;;;;;;;28.17;12.40;;;;;;;;;;1694858;83;21935;-82
2022/10/30 00:18:58;;;;;;;31.05;13.18;;;;;;;;;;1696016;84;20918;-81
2022/10/30 00:21:23;;;;;;;31.35;13.78;;;;;;;;;;1694777;84;20922;-83
2022/10/30 00:23:51;;;;;;;29.87;12.90;;;;;;;;;;1695639;84;20961;-82
2022/10/30 00:26:18;;;;;;;29.67;13.45;;;;;;;;;;1695265;84;21479;-83
2022/10/30 00:28:44;;;;;;;30.80;12.70;;;;;;;;;;1695642;84;21438;-83
2022/10/30 00:31:10;;;;;;;27.25;13.18;;;;;;;;;;1693438;84;20840;-82
2022/10/30 00:33:35;;;;;;;27.65;12.70;;;;;;;;;;1694713;83;20990;-82
2022/10/30 00:36:01;;;;;;;25.30;12.05;;;;;;;;;;1694669;84;20847;-80
2022/10/30 00:38:27;;;;;;;28.52;12.98;;;;;;;;;;1694809;83;21012;-82
2022/10/30 00:40:52;;;;;;;29.00;12.35;;;;;;;;;;1694986;84;21148;-83
2022/10/30 00:43:31;;;;;;;33.10;11.45;;;;;;;;;;1694768;83;20968;-83
2022/10/30 00:46:00;;;;;;;31.50;12.15;;;;;;;;;;1695157;84;21546;-85
2022/10/30 00:48:25;;;;;;;30.17;11.70;;;;;;;;;;1694934;83;20991;-83
2022/10/30 00:50:52;;;;;;;27.82;11.93;;;;;;;;;;1694988;84;20922;-83
2022/10/30 00:53:19;;;;;;;32.95;12.30;;;;;;;;;;1695384;84;21257;-81
2022/10/30 00:55:54;;;;;;;27.62;11.50;;;;;;;;;;1694944;84;20998;-83
2022/10/30 00:58:24;;;;;;;28.45;11.75;;;;;;;;;;1695134;83;21005;-83
2022/10/30 01:00:51;;;;;;;22.02;10.70;;;;;;;;;;1695341;83;21003;-82
2022/10/30 01:03:18;;;;;;;24.67;11.00;;;;;;;;;;1694996;84;21080;-83
2022/10/30 01:05:46;;;;;;;24.72;11.33;;;;;;;;;;1695620;84;21118;-85
2022/10/30 01:08:12;;;;;;;25.82;11.08;;;;;;;;;;1695056;84;21548;-83
2022/10/30 01:10:38;;;;;;;29.30;11.68;;;;;;;;;;1694809;83;20898;-81
2022/10/30 01:13:04;;;;;;;26.57;12.05;;;;;;;;;;1694893;84;21679;-88
2022/10/30 01:15:35;;;;;;;26.48;10.70;;;;;;;;;;1694530;83;20910;-83
2022/10/30 01:18:26;;;;;;;25.32;11.75;;;;;;;;;;1674867;84;21025;-82
2022/10/30 01:21:07;;;;;;;23.90;10.53;;;;;;;;;;1648936;86;21006;-82
2022/10/30 01:23:39;;;;;;;25.77;11.28;;;;;;;;;;1588064;88;21081;-82
2022/10/30 01:26:27;;;;;;;28.35;12.82;;;;;;;;;;1588418;88;21593;-82
2022/10/30 01:29:08;;;;;;;29.70;13.22;;;;;;;;;;1585025;88;21101;-83
2022/10/30 01:31:52;;;;;;;31.62;13.30;;;;;;;;;;1586469;88;21800;-87
2022/10/30 01:34:25;;;;;;;29.67;11.55;;;;;;;;;;1585052;88;21097;-83
2022/10/30 01:37:00;;;;;;;26.50;12.27;;;;;;;;;;1585717;88;21054;-83
2022/10/30 01:39:29;;;;;;;26.97;11.50;;;;;;;;;;1588448;88;21768;-82
2022/10/30 01:41:55;;;;;;;27.50;11.75;;;;;;;;;;1544726;91;21012;-81
2022/10/30 01:44:27;;;;;;;27.45;11.63;;;;;;;;;;1544995;91;21686;-83
2022/10/30 01:47:06;;;;;;;28.27;12.47;;;;;;;;;;1503342;94;21167;-82
2022/10/30 01:49:41;;;;;;;25.52;11.70;;;;;;;;;;1503130;94;21148;-82
2022/10/30 01:52:43;;;;;;;29.72;11.05;;;;;;;;;;1503066;94;21095;-83
2022/10/30 01:55:35;;;;;;;27.15;9.93;;;;;;;;;;1479899;94;21192;-82
2022/10/30 01:58:22;;;;;;;25.68;9.90;;;;;;;;;;1484468;94;21215;-82
2022/10/30 02:00:51;;;;;;;20.60;9.18;;;;;;;;;;1484316;94;21157;-81
2022/10/30 02:03:17;;;;;;;23.18;9.63;;;;;;;;;;1484453;94;21123;-82
2022/10/30 02:05:47;;;;;;;27.32;9.95;;;;;;;;;;1484563;95;21043;-85
2022/10/30 02:08:13;;;;;;;28.38;9.83;;;;;;;;;;1484684;94;21747;-82
2022/10/30 02:10:40;;;;;;;21.37;9.88;;;;;;;;;;1484555;94;21122;-82
2022/10/30 02:13:06;;;;;;;25.27;10.03;;;;;;;;;;1484390;94;21132;-81
2022/10/30 02:15:31;;;;;;;22.55;9.98;;;;;;;;;;1484487;94;21058;-83
2022/10/30 02:17:57;;;;;;;27.02;9.93;;;;;;;;;;1501755;93;20943;-80
2022/10/30 02:20:23;;;;;;;26.02;9.78;;;;;;;;;;1504796;94;20995;-82
2022/10/30 02:22:49;;;;;;;19.42;8.50;;;;;;;;;;1495713;95;21186;-82
2022/10/30 02:25:15;;;;;;;25.50;9.53;;;;;;;;;;1495814;95;21768;-83
2022/10/30 02:27:41;;;;;;;23.57;9.23;;;;;;;;;;1496089;95;21058;-81
2022/10/30 02:30:08;;;;;;;23.98;9.05;;;;;;;;;;1495671;95;21058;-81
2022/10/30 02:32:33;;;;;;;20.62;9.25;;;;;;;;;;1505034;93;21171;-82
2022/10/30 02:34:59;;;;;;;21.35;9.25;;;;;;;;;;1505562;93;21901;-83
2022/10/30 02:37:24;;;;;;;27.30;9.43;;;;;;;;;;1505446;93;21023;-82
2022/10/30 02:39:50;;;;;;;18.85;8.78;;;;;;;;;;1583941;90;20937;-83
2022/10/30 02:42:16;;;;;;;23.65;9.30;;;;;;;;;;1632766;84;20843;-80
2022/10/30 02:44:42;;;;;;;19.73;8.80;;;;;;;;;;1691755;84;21069;-83
2022/10/30 02:47:08;;;;;;;20.75;8.90;;;;;;;;;;1695021;84;20913;-82
2022/10/30 02:49:33;;;;;;;24.90;9.03;;;;;;;;;;1695140;83;20886;-82
2022/10/30 02:51:59;;;;;;;18.23;8.60;;;;;;;;;;1695118;84;21688;-82
2022/10/30 02:54:25;;;;;;;15.63;7.95;;;;;;;;;;1695275;84;20961;-79
2022/10/30 02:56:50;;;;;;;21.80;9.45;;;;;;;;;;1695187;84;20918;-83
2022/10/30 02:59:16;;;;;;;31.80;9.93;;;;;;;;;;1695161;84;20990;-83
2022/10/30 03:01:42;;;;;;;18.67;8.85;;;;;;;;;;1694829;84;20882;-82
2022/10/30 03:04:08;;;;;;;21.17;8.93;;;;;;;;;;1695240;84;20910;-82
2022/10/30 03:06:34;;;;;;;17.60;9.05;;;;;;;;;;1695162;84;20977;-82
2022/10/30 03:08:59;;;;;;;25.10;8.80;;;;;;;;;;1695129;84;20882;-83
2022/10/30 03:11:26;;;;;;;22.80;9.90;;;;;;;;;;1695131;84;21357;-83
2022/10/30 03:13:51;;;;;;;18.95;8.93;;;;;;;;;;1695076;84;21054;-82
2022/10/30 03:16:20;;;;;;;21.57;9.20;;;;;;;;;;1694949;83;20914;-82
2022/10/30 03:18:46;;;;;;;19.60;8.35;;;;;;;;;;1695192;84;21584;-79
2022/10/30 03:21:17;;;;;;;20.62;8.65;;;;;;;;;;1695148;84;21037;-82
2022/10/30 03:23:43;;;;;;;19.05;8.73;;;;;;;;;;1695108;84;21828;-82
2022/10/30 03:26:09;;;;;;;20.95;9.28;;;;;;;;;;1694967;84;20843;-83
2022/10/30 03:28:35;;;;;;;18.55;8.48;;;;;;;;;;1695121;84;21060;-85
2022/10/30 03:31:06;;;;;;;25.32;9.33;;;;;;;;;;1691151;84;21605;-83
2022/10/30 03:33:32;;;;;;;22.85;9.43;;;;;;;;;;1694762;84;21089;-83
2022/10/30 03:35:59;;;;;;;26.30;9.85;;;;;;;;;;1694617;84;21120;-83
2022/10/30 03:38:25;;;;;;;20.10;9.25;;;;;;;;;;1694834;84;21017;-83
2022/10/30 03:40:52;;;;;;;26.10;9.60;;;;;;;;;;1694773;84;21017;-83
2022/10/30 03:43:18;;;;;;;22.90;8.95;;;;;;;;;;1694635;84;21006;-83
2022/10/30 03:45:48;;;;;;;25.35;9.90;;;;;;;;;;1695110;84;20990;-82
2022/10/30 03:48:15;;;;;;;22.37;9.55;;;;;;;;;;1694748;84;21847;-85
2022/10/30 03:50:41;;;;;;;23.30;9.20;;;;;;;;;;1694892;84;21045;-82
2022/10/30 03:53:06;;;;;;;25.00;9.73;;;;;;;;;;1694675;84;20867;-83
2022/10/30 03:55:32;;;;;;;22.20;9.45;;;;;;;;;;1694679;84;20910;-83
2022/10/30 03:57:58;;;;;;;24.80;9.95;;;;;;;;;;1694759;84;20851;-82
2022/10/30 04:00:23;;;;;;;20.65;9.50;;;;;;;;;;1694835;84;21139;-83
2022/10/30 04:02:50;;;;;;;23.98;10.00;;;;;;;;;;1694683;84;20891;-83
2022/10/30 04:07:46;;;;;;;25.92;9.48;;;;;;;;;;1597282;88;21657;-80
2022/10/30 04:10:13;;;;;;;24.82;10.25;;;;;;;;;;1596571;89;21046;-82
2022/10/30 04:12:39;;;;;;;23.00;10.15;;;;;;;;;;1597232;89;21592;-84
2022/10/30 04:15:06;;;;;;;24.90;10.05;;;;;;;;;;1596630;88;21036;-82
2022/10/30 04:17:32;;;;;;;22.95;11.00;;;;;;;;;;1597237;89;21046;-82
2022/10/30 04:19:58;;;;;;;25.92;10.65;;;;;;;;;;1596728;89;20875;-81
2022/10/30 04:22:24;;;;;;;25.90;10.98;;;;;;;;;;1575856;89;20927;-85
2022/10/30 04:24:50;;;;;;;23.83;10.82;;;;;;;;;;1596296;89;21097;-83
2022/10/30 04:27:16;;;;;;;24.07;11.03;;;;;;;;;;1597075;89;20875;-82
2022/10/30 04:29:41;;;;;;;27.20;11.38;;;;;;;;;;1596591;89;21719;-82
2022/10/30 04:34:38;;;;;;;24.40;10.85;;;;;;;;;;1519864;92;21162;-84
2022/10/30 04:37:03;;;;;;;27.95;11.57;;;;;;;;;;1519521;94;21106;-80
2022/10/30 04:39:29;;;;;;;28.40;11.65;;;;;;;;;;1519797;94;21091;-83
2022/10/30 04:41:55;;;;;;;32.60;11.75;;;;;;;;;;1519906;94;20960;-82
2022/10/30 04:44:21;;;;;;;29.05;11.88;;;;;;;;;;1519819;94;21527;-83
2022/10/30 04:46:46;;;;;;;26.77;11.83;;;;;;;;;;1519865;94;20933;-80
2022/10/30 04:49:12;;;;;;;30.57;11.93;;;;;;;;;;1519757;94;21690;-82
2022/10/30 04:51:37;;;;;;;32.33;12.75;;;;;;;;;;1519707;94;21008;-83
2022/10/30 04:54:03;;;;;;;26.33;10.82;;;;;;;;;;1519719;94;21073;-82
2022/10/30 04:56:31;;;;;;;27.85;11.97;;;;;;;;;;1519797;92;20968;-83
2022/10/30 04:58:56;;;;;;;39.50;13.28;;;;;;;;;;1519657;94;21015;-80
2022/10/30 05:01:22;;;;;;;32.63;12.43;;;;;;;;;;1519964;92;21180;-82
2022/10/30 05:03:48;;;;;;;30.82;12.68;;;;;;;;;;1533886;88;21701;-83
2022/10/30 05:06:24;;;;;;;28.70;13.32;;;;;;;;;;1619570;88;20924;-82
2022/10/30 05:08:50;;;;;;;32.10;12.82;;;;;;;;;;1584543;89;21118;-83
2022/10/30 05:11:16;;;;;;;36.40;13.72;;;;;;;;;;1619104;88;20919;-80
2022/10/30 05:13:42;;;;;;;31.00;12.05;;;;;;;;;;1585173;89;21093;-83
2022/10/30 05:16:08;;;;;;;27.67;13.60;;;;;;;;;;1619885;87;20943;-84
2022/10/30 05:18:34;;;;;;;32.28;13.05;;;;;;;;;;1584649;90;21551;-83
2022/10/30 05:20:59;;;;;;;29.63;13.43;;;;;;;;;;1619412;88;20970;-83
2022/10/30 05:23:25;;;;;;;31.12;14.38;;;;;;;;;;1584617;89;21031;-83
2022/10/30 05:25:50;;;;;;;33.55;13.83;;;;;;;;;;1584505;89;21826;-83
2022/10/30 05:28:16;;;;;;;32.75;14.03;;;;;;;;;;1584685;90;20910;-82
2022/10/30 05:30:42;;;;;;;36.03;13.72;;;;;;;;;;1619525;88;20948;-82
2022/10/30 05:33:10;;;;;;;31.45;13.48;;;;;;;;;;1584270;88;20907;-82
2022/10/30 05:35:36;;;;;;;36.08;15.15;;;;;;;;;;1584879;90;21069;-83
2022/10/30 05:38:04;;;;;;;41.73;14.95;;;;;;;;;;1608920;87;21184;-81
2022/10/30 05:40:30;;;;;;;41.05;15.23;;;;;;;;;;1694389;84;21057;-83
2022/10/30 05:42:56;;;;;;;38.40;15.83;;;;;;;;;;1695087;84;20963;-84
2022/10/30 05:45:21;;;;;;;35.52;14.70;;;;;;;;;;1694860;84;20902;-83
2022/10/30 05:47:58;;;;;;;36.70;14.70;;;;;;;;;;1695204;84;20867;-83
2022/10/30 05:50:25;;;;;;;31.80;14.20;;;;;;;;;;1694809;84;21662;-83
2022/10/30 05:52:55;;;;;;;37.93;15.48;;;;;;;;;;1694911;84;21526;-83
2022/10/30 05:55:21;;;;;;;38.05;15.70;;;;;;;;;;1695431;84;21093;-84
2022/10/30 05:57:46;;;;;;;31.48;13.75;;;;;;;;;;1694867;84;21581;-84
2022/10/30 06:00:13;;;;;;;34.43;15.50;;;;;;;;;;1694848;84;20941;-83
2022/10/30 06:02:38;;;;;;;35.10;15.10;;;;;;;;;;1694980;84;21044;-84
2022/10/30 06:05:05;;;;;;;33.73;14.18;;;;;;;;;;1694626;83;20910;-84
2022/10/30 06:07:30;;;;;;;36.17;15.50;;;;;;;;;;1694992;84;21005;-83
2022/10/30 06:09:56;;;;;;;33.95;14.33;;;;;;;;;;1695156;84;20997;-84
2022/10/30 06:12:22;;;;;;;30.95;14.33;;;;;;;;;;1694944;84;21005;-82
2022/10/30 06:14:47;;;;;;;32.23;14.20;;;;;;;;;;1694890;84;21070;-81
2022/10/30 06:17:13;;;;;;;32.25;13.22;;;;;;;;;;1694934;84;21592;-82
2022/10/30 06:19:39;;;;;;;33.05;13.68;;;;;;;;;;1694839;84;20982;-83
2022/10/30 06:22:05;;;;;;;32.28;12.55;;;;;;;;;;1698708;83;20887;-85
2022/10/30 06:26:58;;;;;;;29.72;13.28;;;;;;;;;;1622484;87;21018;-81
2022/10/30 06:29:24;;;;;;;32.98;13.08;;;;;;;;;;1622964;87;20970;-83
2022/10/30 06:31:50;;;;;;;27.70;12.80;;;;;;;;;;1622456;87;20919;-82
2022/10/30 06:34:15;;;;;;;34.55;13.95;;;;;;;;;;1622572;87;20982;-79
2022/10/30 06:36:41;;;;;;;33.25;12.45;;;;;;;;;;1622707;88;20980;-81
2022/10/30 06:39:06;;;;;;;30.17;11.83;;;;;;;;;;1622593;88;21385;-81
2022/10/30 06:41:33;;;;;;;28.20;11.55;;;;;;;;;;1622382;87;20927;-82
2022/10/30 06:43:59;;;;;;;30.27;11.63;;;;;;;;;;1622435;88;21098;-81
2022/10/30 06:46:25;;;;;;;23.50;11.00;;;;;;;;;;1622587;87;21565;-81
2022/10/30 06:48:50;;;;;;;30.90;11.95;;;;;;;;;;1623501;87;20868;-81
2022/10/30 06:51:16;;;;;;;29.12;11.63;;;;;;;;;;1622687;88;21609;-81
2022/10/30 06:53:42;;;;;;;28.45;11.25;;;;;;;;;;1622637;87;20880;-82
2022/10/30 06:56:08;;;;;;;28.05;10.95;;;;;;;;;;1600990;88;20978;-81
2022/10/30 06:58:37;;;;;;;25.90;11.65;;;;;;;;;;1622764;88;20924;-81
2022/10/30 07:01:02;;;;;;;27.98;10.80;;;;;;;;;;1622377;88;21070;-78
2022/10/30 07:03:28;;;;;;;31.17;11.33;;;;;;;;;;1622705;87;21688;-82
2022/10/30 07:05:54;;;;;;;25.48;10.60;;;;;;;;;;1622659;87;21669;-81
2022/10/30 07:08:20;;;;;;;27.00;10.58;;;;;;;;;;1622936;87;20848;-81
2022/10/30 07:10:45;;;;;;;32.98;12.13;;;;;;;;;;1622721;88;21341;-81
2022/10/30 07:13:11;;;;;;;25.55;10.93;;;;;;;;;;1622678;88;22506;-81
2022/10/30 07:15:37;;;;;;;21.90;10.80;;;;;;;;;;1622581;88;21180;-83
2022/10/30 07:18:03;;;;;;;26.23;10.63;;;;;;;;;;1622248;88;20931;-80
2022/10/30 07:20:31;;;;;;;27.80;11.20;;;;;;;;;;1601016;88;20960;-81
2022/10/30 07:22:56;;;;;;;25.10;10.98;;;;;;;;;;1632653;84;21124;-81
2022/10/30 07:25:22;;;;;;;29.15;10.68;;;;;;;;;;1694998;84;20906;-81
2022/10/30 07:30:19;;;;;;;22.48;9.90;;;;;;;;;;1598377;89;21038;-82
2022/10/30 07:32:45;;;;;;;22.93;10.00;;;;;;;;;;1594546;89;21547;-81
2022/10/30 07:35:13;;;;;;;24.70;9.53;;;;;;;;;;1589997;89;21131;-82
2022/10/30 07:37:39;;;;;;;27.70;12.03;;;;;;;;;;1589770;89;21149;-81
2022/10/30 07:40:06;;;;;;;20.97;10.00;;;;;;;;;;1590615;88;21087;-86
2022/10/30 07:42:33;;;;;;;19.02;9.30;;;;;;;;;;1589944;88;21030;-81
2022/10/30 07:44:58;;;;;;;22.65;9.45;;;;;;;;;;1589913;89;21053;-81
2022/10/30 07:47:24;;;;;;;26.25;10.10;;;;;;;;;;1589891;90;20982;-81
2022/10/30 07:49:50;;;;;;;27.62;11.00;;;;;;;;;;1589731;89;20942;-81
2022/10/30 07:52:16;;;;;;;32.13;11.15;;;;;;;;;;1589792;89;21926;-81
2022/10/30 07:54:41;;;;;;;23.60;10.53;;;;;;;;;;1590366;89;20911;-81
2022/10/30 07:57:07;;;;;;;28.60;10.28;;;;;;;;;;1589489;89;21770;-82
2022/10/30 07:59:33;;;;;;;32.38;10.53;;;;;;;;;;1589791;88;21053;-81
2022/10/30 08:01:59;;;;;;;25.75;10.30;;;;;;;;;;1590818;88;20998;-81
2022/10/30 08:04:25;;;;;;;24.92;11.05;;;;;;;;;;1590358;88;21141;-79
2022/10/30 08:06:52;;;;;;;30.72;10.50;;;;;;;;;;1589917;88;21010;-81
2022/10/30 08:09:17;;;;;;;23.77;10.25;;;;;;;;;;1589846;88;21530;-82
2022/10/30 08:11:43;;;;;;;28.83;11.38;;;;;;;;;;1590138;88;20859;-81
2022/10/30 08:14:09;;;;;;;21.77;9.53;;;;;;;;;;1589662;89;21037;-81
2022/10/30 08:16:34;;;;;;;22.98;9.60;;;;;;;;;;1589728;89;21159;-86
2022/10/30 08:19:00;;;;;;;22.35;10.55;;;;;;;;;;1589837;89;20927;-85
2022/10/30 08:21:26;;;;;;;21.33;9.78;;;;;;;;;;1591610;88;21010;-80
2022/10/30 08:23:52;;;;;;;22.80;9.40;;;;;;;;;;1589930;89;21199;-82
2022/10/30 08:26:17;;;;;;;24.45;10.15;;;;;;;;;;1603269;84;21611;-81
2022/10/30 08:28:43;;;;;;;24.10;10.25;;;;;;;;;;1695422;84;21147;-81
2022/10/30 08:31:09;;;;;;;22.10;9.58;;;;;;;;;;1694812;84;20962;-80
2022/10/30 08:33:34;;;;;;;24.47;9.30;;;;;;;;;;1694694;84;20808;-81
2022/10/30 08:36:01;;;;;;;22.52;9.55;;;;;;;;;;1695526;84;20839;-81
2022/10/30 08:38:28;;;;;;;21.42;10.45;;;;;;;;;;1694677;84;20986;-80
2022/10/30 08:40:53;;;;;;;31.00;10.10;;;;;;;;;;1695074;84;21053;-81
2022/10/30 08:43:19;;;;;;;22.80;9.15;;;;;;;;;;1694661;83;20871;-81
2022/10/30 08:45:45;;;;;;;24.98;10.50;;;;;;;;;;1694793;84;20890;-87
2022/10/30 08:48:13;;;;;;;22.17;10.00;;;;;;;;;;1694922;84;20882;-81
2022/10/30 08:50:39;;;;;;;18.98;9.23;;;;;;;;;;1694966;84;20994;-80
2022/10/30 08:53:06;;;;;;;19.52;9.38;;;;;;;;;;1694973;84;21895;-83
2022/10/30 08:55:33;;;;;;;19.60;9.45;;;;;;;;;;1694523;84;21061;-81
2022/10/30 08:57:59;;;;;;;21.00;8.90;;;;;;;;;;1694787;84;21093;-81
2022/10/30 09:00:25;;;;;;;19.50;8.48;;;;;;;;;;1694798;84;21032;-82
2022/10/30 09:02:52;;;;;;;17.92;8.15;;;;;;;;;;1694782;84;21010;-80
2022/10/30 09:05:18;;;;;;;20.05;8.30;;;;;;;;;;1694824;84;21096;-81
2022/10/30 09:07:46;;;;;;;19.65;6.72;;;;;;;;;;1694630;84;21092;-82
2022/10/30 09:10:13;;;;;;;19.12;7.85;;;;;;;;;;1616345;87;21107;-82
2022/10/30 09:12:40;;;;;;;12.45;6.83;;;;;;;;;;1595606;86;21130;-82
2022/10/30 09:17:49;;;;;;;17.60;6.60;;;;;;;;;;1598528;88;21394;-83
2022/10/30 09:20:15;;;;;;;;;;;;;;;;;;1544137;90;21116;-82
2022/10/30 09:22:41;;;;;;;17.02;5.70;;;;;;;;;;1565819;89;20255;-80
2022/10/30 09:25:07;;;;;;;18.48;7.37;;;;;;;;;;1544606;91;21514;-83
2022/10/30 09:27:40;;;;;;;14.15;6.22;;;;;;;;;;1567920;89;21160;-82
2022/10/30 09:30:06;;;;;;;13.33;5.77;;;;;;;;;;1567192;90;21175;-85
2022/10/30 09:32:32;;;;;;;15.72;6.20;;;;;;;;;;1578569;86;21258;-83
2022/10/30 09:34:58;;;;;;;17.20;6.20;;;;;;;;;;1607609;88;20919;-82
2022/10/30 09:37:25;;;;;;;17.07;6.05;;;;;;;;;;1612179;88;20992;-82
2022/10/30 09:39:53;;;;;;;14.38;5.35;;;;;;;;;;1608217;88;21126;-82
2022/10/30 09:42:35;;;;;;;13.03;5.87;;;;;;;;;;1606582;88;21091;-82
2022/10/30 09:45:21;;;;;;;10.75;5.22;;;;;;;;;;1559625;90;21116;-82
2022/10/30 09:48:19;;;;;;;14.33;5.55;;;;;;;;;;1562179;90;21709;-82
2022/10/30 09:50:56;;;;;;;13.45;5.97;;;;;;;;;;1556040;90;21149;-83
2022/10/30 09:53:29;;;;;;;11.65;4.00;;;;;;;;;;1560455;90;21171;-83
2022/10/30 09:56:07;;;;;;;7.40;3.98;;;;;;;;;;1562532;90;21607;-87
2022/10/30 09:58:48;;;;;;;12.18;4.60;;;;;;;;;;1575670;89;21208;-85
2022/10/30 10:01:23;;;;;;;12.88;5.22;;;;;;;;;;1494748;94;21642;-84
2022/10/30 10:04:05;;;;;;;8.20;4.28;;;;;;;;;;1498234;92;21139;-81
2022/10/30 10:06:33;;;;;;;10.38;4.50;;;;;;;;;;1485623;94;21000;-81
2022/10/30 10:09:02;;;;;;;9.15;4.20;;;;;;;;;;1494979;94;21220;-86
2022/10/30 10:11:43;;;;;;;13.48;4.22;;;;;;;;;;1499562;94;21168;-83
2022/10/30 10:14:24;;;;;;;12.10;4.33;;;;;;;;;;1506389;94;21141;-83
2022/10/30 10:16:52;;;;;;;10.18;4.03;;;;;;;;;;1504786;94;21140;-84
2022/10/30 10:19:27;;;;;;;9.45;4.05;;;;;;;;;;1503339;94;21164;-83
2022/10/30 10:21:55;;;;;;;12.30;4.30;;;;;;;;;;1537136;91;21151;-85
2022/10/30 10:24:24;;;;;;;13.15;3.70;;;;;;;;;;1534674;92;21144;-83
2022/10/30 10:26:56;;;;;;;7.00;3.77;;;;;;;;;;1519666;92;21067;-83
2022/10/30 10:29:48;;;;;;;10.45;4.75;;;;;;;;;;1511158;94;21008;-84
2022/10/30 10:32:51;;;;;;;7.58;3.72;;;;;;;;;;1512038;94;21113;-83
2022/10/30 10:38:42;;;;;;;8.75;4.08;;;;;;;;;;1456658;97;21102;-82
2022/10/30 10:41:31;;;;;;;14.45;3.80;;;;;;;;;;1445933;97;21149;-82
2022/10/30 10:44:13;;;;;;;14.35;4.12;;;;;;;;;;1446807;97;21150;-84
2022/10/30 10:46:57;;;;;;;12.53;4.10;;;;;;;;;;1450268;97;21094;-87
2022/10/30 10:49:35;;;;;;;10.28;4.20;;;;;;;;;;1442004;98;21154;-85
2022/10/30 10:52:13;;;;;;;15.10;4.40;;;;;;;;;;1443833;98;21569;-84
2022/10/30 10:54:44;;;;;;;9.50;4.40;;;;;;;;;;1456146;96;21252;-80
2022/10/30 10:57:14;;;;;;;13.05;4.70;;;;;;;;;;1472949;96;21279;-86
2022/10/30 10:59:49;;;;;;;13.43;4.40;;;;;;;;;;1438674;99;21141;-83
2022/10/30 11:02:38;;;;;;;;;;;;;;;;;;;;;
2022/10/30 11:05:17;;;;;;;11.20;4.65;;;;;;;;;;1436726;99;21762;-84
2022/10/30 11:07:48;;;;;;;12.75;4.37;;;;;;;;;;1460607;96;21516;-82
2022/10/30 11:10:16;;;;;;;10.00;4.55;;;;;;;;;;1450265;97;21674;-86
2022/10/30 11:12:42;;;;;;;9.80;4.10;;;;;;;;;;1471399;97;21217;-84
2022/10/30 11:15:34;;;;;;;16.70;4.45;;;;;;;;;;1436800;99;22752;-85
2022/10/30 11:18:02;;;;;;;9.88;4.12;;;;;;;;;;1471045;97;21199;-82
2022/10/30 11:20:44;;;;;;;10.20;4.00;;;;;;;;;;1474711;95;21164;-81
2022/10/30 11:23:39;;;;;;;10.72;4.37;;;;;;;;;;1492834;95;21092;-81
2022/10/30 11:26:21;;;;;;;12.73;4.37;;;;;;;;;;1492869;95;21210;-82
2022/10/30 11:28:53;;;;;;;9.93;4.20;;;;;;;;;;1492942;94;21897;-84
2022/10/30 11:31:22;;;;;;;7.50;3.50;;;;;;;;;;1492743;96;21071;-90
2022/10/30 11:33:48;;;;;;;9.00;3.20;;;;;;;;;;1493002;94;21600;-83
2022/10/30 11:36:16;;;;;;;12.15;4.25;;;;;;;;;;1539210;90;21179;-83
2022/10/30 11:38:42;;;;;;;10.63;4.50;;;;;;;;;;1557468;90;21051;-83
2022/10/30 11:41:11;;;;;;;17.10;4.15;;;;;;;;;;1553422;90;21903;-85
2022/10/30 11:46:12;;;;;;;8.45;3.40;;;;;;;;;;1548957;91;21170;-83
2022/10/30 11:48:39;;;;;;;6.65;3.25;;;;;;;;;;1549147;91;21050;-84
2022/10/30 11:51:05;;;;;;;6.70;3.80;;;;;;;;;;1562232;88;21261;-81
2022/10/30 11:53:38;;;;;;;7.60;3.67;;;;;;;;;;1587308;90;21185;-85
2022/10/30 11:56:08;;;;;;;11.08;3.80;;;;;;;;;;1608793;86;21037;-81
2022/10/30 11:58:36;;;;;;;11.35;3.55;;;;;;;;;;1633677;86;21637;-86
2022/10/30 12:01:05;;;;;;;8.68;3.62;;;;;;;;;;1556740;92;21782;-83
2022/10/30 12:03:39;;;;;;;11.30;4.08;;;;;;;;;;1556736;90;21084;-87
2022/10/30 12:06:20;;;;;;;6.87;3.52;;;;;;;;;;1555984;92;21164;-84
2022/10/30 12:09:04;;;;;;;8.30;3.35;;;;;;;;;;1556787;92;21130;-89
2022/10/30 12:11:32;;;;;;;11.00;3.12;;;;;;;;;;1547083;92;21879;-88
2022/10/30 12:13:58;;;;;;;10.05;3.10;;;;;;;;;;1527468;93;21109;-85
2022/10/30 12:16:25;;;;;;;6.50;3.42;;;;;;;;;;1527441;93;21188;-85
2022/10/30 12:19:03;;;;;;;8.78;3.33;;;;;;;;;;1527653;93;21097;-84
2022/10/30 12:21:32;;;;;;;16.75;4.22;;;;;;;;;;1537288;92;21180;-82
2022/10/30 12:24:05;;;;;;;8.53;3.80;;;;;;;;;;1529593;93;21105;-82
2022/10/30 12:26:29;;;;;;;9.58;3.72;;;;;;;;;;1525636;93;22268;-87
2022/10/30 12:29:03;;;;;;;10.08;3.58;;;;;;;;;;1526003;92;21101;-84
2022/10/30 12:31:38;;;;;;;9.38;3.80;;;;;;;;;;1527637;93;21827;-85
2022/10/30 12:34:25;;;;;;;11.43;3.95;;;;;;;;;;1524549;92;21049;-87
2022/10/30 12:37:01;;;;;;;13.13;3.12;;;;;;;;;;1534320;91;21690;-86
2022/10/30 12:39:33;;;;;;;8.95;3.90;;;;;;;;;;1536431;92;21589;-83
2022/10/30 12:42:08;;;;;;;8.57;3.43;;;;;;;;;;1547612;89;21131;-85
2022/10/30 12:44:36;;;;;;;12.33;4.70;;;;;;;;;;1584606;90;21071;-88
2022/10/30 12:47:15;;;;;;;10.90;4.28;;;;;;;;;;1591882;88;21549;-87
2022/10/30 12:49:44;;;;;;;17.92;4.62;;;;;;;;;;1588802;90;21242;-87
2022/10/30 12:52:22;;;;;;;11.03;3.52;;;;;;;;;;1592006;90;21177;-85
2022/10/30 12:55:09;;;;;;;11.33;3.95;;;;;;;;;;1590180;90;21688;-88
2022/10/30 12:57:36;;;;;;;12.73;3.85;;;;;;;;;;1631439;82;21077;-86
2022/10/30 13:00:14;;;;;;;13.72;4.10;;;;;;;;;;1722254;82;21697;-86
2022/10/30 13:03:03;;;;;;;13.05;4.50;;;;;;;;;;1731789;82;21051;-86
2022/10/30 13:05:47;;;;;;;10.50;4.35;;;;;;;;;;1723614;82;21119;-88
2022/10/30 13:08:33;;;;;;;13.58;4.40;;;;;;;;;;1727015;82;21046;-86
2022/10/30 13:11:09;;;;;;;11.28;4.05;;;;;;;;;;1725028;82;21083;-86
2022/10/30 13:13:38;;;;;;;13.53;3.87;;;;;;;;;;1728214;82;21106;-90
2022/10/30 13:16:19;;;;;;;10.55;3.90;;;;;;;;;;1676193;85;21085;-85
2022/10/30 13:18:45;;;;;;;9.48;4.10;;;;;;;;;;1579817;89;21131;-88
2022/10/30 13:21:33;;;;;;;11.10;4.03;;;;;;;;;;1584842;89;20960;-84
2022/10/30 13:24:08;;;;;;;9.58;3.55;;;;;;;;;;1582030;89;21246;-88
2022/10/30 13:26:58;;;;;;;12.63;4.17;;;;;;;;;;1554841;90;21052;-86
2022/10/30 13:29:51;;;;;;;8.95;4.08;;;;;;;;;;1523582;93;21279;-85
2022/10/30 13:32:32;;;;;;;10.80;4.08;;;;;;;;;;1527074;93;21034;-88
2022/10/30 13:35:19;;;;;;;10.65;3.75;;;;;;;;;;1506813;93;22822;-86
2022/10/30 13:37:54;;;;;;;14.13;3.95;;;;;;;;;;1495007;94;21176;-84
2022/10/30 13:40:29;;;;;;;15.13;4.28;;;;;;;;;;1491357;94;21130;-83
2022/10/30 13:43:04;;;;;;;10.82;3.72;;;;;;;;;;1492743;94;21642;-87
2022/10/30 13:45:52;;;;;;;9.18;3.45;;;;;;;;;;1489780;94;21177;-88
2022/10/30 13:48:46;;;;;;;9.88;4.30;;;;;;;;;;1496135;94;22547;-89
2022/10/30 13:51:46;;;;;;;11.03;4.22;;;;;;;;;;1497102;94;21289;-87
2022/10/30 13:54:16;;;;;;;9.80;3.47;;;;;;;;;;1501300;94;21107;-87
2022/10/30 13:56:44;;;;;;;11.00;4.03;;;;;;;;;;1491653;94;21610;-86
2022/10/30 13:59:29;;;;;;;9.93;3.95;;;;;;;;;;1491690;94;21207;-87
2022/10/30 14:02:17;;;;;;;15.05;3.95;;;;;;;;;;1489525;96;21121;-86
2022/10/30 14:05:05;;;;;;;9.10;4.05;;;;;;;;;;1520470;92;21790;-87
2022/10/30 14:07:37;;;;;;;13.68;4.03;;;;;;;;;;1508332;94;21062;-86
2022/10/30 14:10:09;;;;;;;9.08;4.33;;;;;;;;;;1525498;92;21197;-87
2022/10/30 14:12:47;;;;;;;11.08;4.03;;;;;;;;;;1503457;89;21089;-87
2022/10/30 14:15:26;;;;;;;7.92;4.00;;;;;;;;;;1598409;88;21581;-85
2022/10/30 14:18:12;;;;;;;11.45;4.62;;;;;;;;;;1597227;88;21195;-87
2022/10/30 14:20:43;;;;;;;10.48;4.67;;;;;;;;;;1597953;88;21000;-84
2022/10/30 14:23:14;;;;;;;10.48;4.67;;;;;;;;;;1597317;88;21089;-86
2022/10/30 14:25:41;;;;;;;10.30;4.90;;;;;;;;;;1593633;89;21045;-86
2022/10/30 14:28:20;;;;;;;12.65;5.10;;;;;;;;;;1573137;89;21602;-85
2022/10/30 14:30:46;;;;;;;11.88;4.08;;;;;;;;;;1574309;89;22712;-87
2022/10/30 14:33:41;;;;;;;12.43;4.55;;;;;;;;;;1599976;88;20982;-86
2022/10/30 14:36:16;;;;;;;13.60;4.40;;;;;;;;;;1600476;88;21536;-86
2022/10/30 14:39:02;;;;;;;14.00;4.50;;;;;;;;;;1599962;89;21512;-86
2022/10/30 14:41:31;;;;;;;15.90;5.05;;;;;;;;;;1649423;85;21115;-86
2022/10/30 14:44:17;;;;;;;9.60;4.17;;;;;;;;;;1652477;86;21731;-88
2022/10/30 14:46:55;;;;;;;10.28;4.42;;;;;;;;;;1639819;87;21459;-85
2022/10/30 14:49:27;;;;;;;16.17;4.83;;;;;;;;;;1657334;84;21082;-85
2022/10/30 14:52:30;;;;;;;14.40;4.90;;;;;;;;;;1664623;85;21097;-87
2022/10/30 14:54:59;;;;;;;10.88;4.37;;;;;;;;;;1650524;84;21144;-85
2022/10/30 14:57:47;;;;;;;11.60;4.15;;;;;;;;;;1663310;85;21904;-83
2022/10/30 15:00:25;;;;;;;13.15;3.85;;;;;;;;;;1666763;86;21183;-84
2022/10/30 15:03:07;;;;;;;8.45;2.83;;;;;;;;;;1661633;86;21120;-85
2022/10/30 15:08:36;;;;;;;10.23;2.90;;;;;;;;;;1650633;84;21517;-85
2022/10/30 15:11:18;;;;;;;6.17;2.77;;;;;;;;;;1662550;84;21186;-89